createdAt,value
2019-01-05T00:00:42.135Z,1015.34
2019-01-05T00:01:42.125Z,1015.35
2019-01-05T00:02:42.115Z,1015.36
2019-01-05T00:03:42.110Z,1015.36
2019-01-05T00:04:42.099Z,1015.35
2019-01-05T00:05:42.090Z,1015.32
2019-01-05T00:06:42.085Z,1015.34
2019-01-05T00:07:42.072Z,1015.35
2019-01-05T00:08:42.069Z,1015.38
2019-01-05T00:09:42.053Z,1015.39
2019-01-05T00:10:42.048Z,1015.37
2019-01-05T00:11:42.037Z,1015.41
2019-01-05T00:12:42.028Z,1015.41
2019-01-05T00:13:42.022Z,1015.42
2019-01-05T00:14:42.011Z,1015.43
2019-01-05T00:15:42.007Z,1015.41
2019-01-05T00:16:41.993Z,1015.38
2019-01-05T00:17:41.990Z,1015.39
2019-01-05T00:18:41.975Z,1015.37
2019-01-05T00:19:41.969Z,1015.33
2019-01-05T00:20:41.957Z,1015.28
2019-01-05T00:21:41.949Z,1015.32
2019-01-05T00:22:41.942Z,1015.25
2019-01-05T00:23:41.936Z,1015.27
2019-01-05T00:24:41.932Z,1015.23
2019-01-05T00:25:41.915Z,1015.19
2019-01-05T00:26:41.905Z,1015.14
2019-01-05T00:27:41.896Z,1015.11
2019-01-05T00:28:41.889Z,1015.13
2019-01-05T00:29:41.878Z,1015.13
2019-01-05T00:30:41.871Z,1015.06
2019-01-05T00:31:41.860Z,1015.06
2019-01-05T00:32:41.855Z,1015.06
2019-01-05T00:33:42.994Z,1015.02
2019-01-05T00:34:41.835Z,1015.04
2019-01-05T00:35:41.829Z,1015.02
2019-01-05T00:36:41.818Z,1015.01
2019-01-05T00:37:41.807Z,1015.04
2019-01-05T00:38:41.799Z,1015.02
2019-01-05T00:39:41.791Z,1015.05
2019-01-05T00:40:41.781Z,1015.02
2019-01-05T00:41:41.772Z,1015.02
2019-01-05T00:42:41.766Z,1014.97
2019-01-05T00:43:41.755Z,1014.94
2019-01-05T00:44:41.749Z,1014.93
2019-01-05T00:45:41.738Z,1014.88
2019-01-05T00:46:41.728Z,1014.91
2019-01-05T00:47:41.725Z,1014.87
2019-01-05T00:48:41.711Z,1014.81
2019-01-05T00:49:41.703Z,1014.77
2019-01-05T00:50:41.692Z,1014.75
2019-01-05T00:51:41.688Z,1014.66
2019-01-05T00:52:41.676Z,1014.61
2019-01-05T00:53:41.668Z,1014.58
2019-01-05T00:54:41.680Z,1014.52
2019-01-05T00:55:41.652Z,1014.49
2019-01-05T00:56:41.640Z,1014.49
2019-01-05T00:57:41.635Z,1014.49
2019-01-05T00:58:41.624Z,1014.48
2019-01-05T00:59:41.615Z,1014.49
2019-01-05T01:00:41.606Z,1014.53
2019-01-05T01:01:41.599Z,1014.52
2019-01-05T01:02:41.587Z,1014.49
2019-01-05T01:03:41.580Z,1014.47
2019-01-05T01:04:41.572Z,1014.42
2019-01-05T01:05:41.562Z,1014.42
2019-01-05T01:06:41.557Z,1014.40
2019-01-05T01:07:41.546Z,1014.39
2019-01-05T01:08:41.536Z,1014.37
2019-01-05T01:09:41.531Z,1014.36
2019-01-05T01:10:41.519Z,1014.32
2019-01-05T01:11:41.520Z,1014.30
2019-01-05T01:12:41.503Z,1014.29
2019-01-05T01:13:41.496Z,1014.27
2019-01-05T01:14:41.483Z,1014.27
2019-01-05T01:15:41.477Z,1014.24
2019-01-05T01:16:41.467Z,1014.29
2019-01-05T01:17:41.459Z,1014.25
2019-01-05T01:18:41.453Z,1014.20
2019-01-05T01:19:41.442Z,1014.23
2019-01-05T01:20:41.432Z,1014.14
2019-01-05T01:21:41.429Z,1014.20
2019-01-05T01:22:41.416Z,1014.14
2019-01-05T01:23:41.409Z,1014.15
2019-01-05T01:24:41.396Z,1014.12
2019-01-05T01:25:41.388Z,1014.13
2019-01-05T01:26:41.380Z,1014.09
2019-01-05T01:27:41.371Z,1014.09
2019-01-05T01:28:41.364Z,1014.08
2019-01-05T01:29:41.354Z,1014.09
2019-01-05T01:30:41.349Z,1014.06
2019-01-05T01:31:41.336Z,1014.03
2019-01-05T01:32:41.328Z,1014.04
2019-01-05T01:33:41.322Z,1014.03
2019-01-05T01:34:41.310Z,1013.97
2019-01-05T01:35:41.304Z,1013.98
2019-01-05T01:36:41.292Z,1013.94
2019-01-05T01:37:41.286Z,1013.98
2019-01-05T01:38:41.278Z,1013.93
2019-01-05T01:39:41.268Z,1013.94
2019-01-05T01:40:41.259Z,1013.89
2019-01-05T01:41:41.250Z,1013.86
2019-01-05T01:42:41.244Z,1013.83
2019-01-05T01:43:41.235Z,1013.79
2019-01-05T01:44:41.225Z,1013.79
2019-01-05T01:45:41.216Z,1013.87
2019-01-05T01:46:41.209Z,1013.84
2019-01-05T01:47:41.200Z,1013.86
2019-01-05T01:48:41.188Z,1013.89
2019-01-05T01:49:41.184Z,1013.90
2019-01-05T01:50:41.173Z,1013.86
2019-01-05T01:51:41.165Z,1013.87
2019-01-05T01:52:41.155Z,1013.89
2019-01-05T01:53:41.147Z,1013.84
2019-01-05T01:54:41.139Z,1013.84
2019-01-05T01:55:41.130Z,1013.85
2019-01-05T01:56:41.121Z,1013.78
2019-01-05T01:57:41.113Z,1013.76
2019-01-05T01:58:41.104Z,1013.76
2019-01-05T01:59:41.097Z,1013.73
2019-01-05T02:00:41.091Z,1013.66
2019-01-05T02:01:41.080Z,1013.70
2019-01-05T02:02:41.069Z,1013.70
2019-01-05T02:03:41.063Z,1013.65
2019-01-05T02:04:41.053Z,1013.63
2019-01-05T02:05:41.045Z,1013.67
2019-01-05T02:06:41.038Z,1013.64
2019-01-05T02:07:41.034Z,1013.63
2019-01-05T02:08:41.017Z,1013.61
2019-01-05T02:09:41.012Z,1013.65
2019-01-05T02:10:41.002Z,1013.56
2019-01-05T02:11:40.994Z,1013.56
2019-01-05T02:12:40.985Z,1013.53
2019-01-05T02:13:40.979Z,1013.47
2019-01-05T02:14:40.968Z,1013.42
2019-01-05T02:15:40.959Z,1013.36
2019-01-05T02:16:40.950Z,1013.35
2019-01-05T02:17:40.944Z,1013.29
2019-01-05T02:18:40.934Z,1013.29
2019-01-05T02:19:40.924Z,1013.23
2019-01-05T02:20:40.920Z,1013.18
2019-01-05T02:21:40.907Z,1013.23
2019-01-05T02:22:40.899Z,1013.19
2019-01-05T02:23:40.894Z,1013.19
2019-01-05T02:24:40.885Z,1013.18
2019-01-05T02:25:40.874Z,1013.20
2019-01-05T02:26:40.867Z,1013.14
2019-01-05T02:27:40.864Z,1013.11
2019-01-05T02:28:40.849Z,1013.16
2019-01-05T02:29:40.841Z,1013.11
2019-01-05T02:30:40.833Z,1013.09
2019-01-05T02:31:40.824Z,1013.12
2019-01-05T02:32:40.815Z,1013.12
2019-01-05T02:33:40.807Z,1013.10
2019-01-05T02:34:40.801Z,1013.08
2019-01-05T02:35:40.794Z,1013.09
2019-01-05T02:36:40.782Z,1013.10
2019-01-05T02:37:40.772Z,1013.01
2019-01-05T02:38:40.769Z,1013.07
2019-01-05T02:39:40.760Z,1013.03
2019-01-05T02:40:40.748Z,1013.00
2019-01-05T02:41:40.744Z,1012.95
2019-01-05T02:42:40.733Z,1012.97
2019-01-05T02:43:40.725Z,1012.95
2019-01-05T02:44:40.715Z,1012.96
2019-01-05T02:45:40.711Z,1012.94
2019-01-05T02:46:40.697Z,1012.94
2019-01-05T02:47:40.695Z,1012.89
2019-01-05T02:48:40.677Z,1012.81
2019-01-05T02:49:40.671Z,1012.82
2019-01-05T02:50:40.669Z,1012.79
2019-01-05T02:51:40.656Z,1012.75
2019-01-05T02:52:40.647Z,1012.66
2019-01-05T02:53:40.639Z,1012.67
2019-01-05T02:54:40.634Z,1012.67
2019-01-05T02:55:40.628Z,1012.59
2019-01-05T02:56:40.616Z,1012.67
2019-01-05T02:57:40.605Z,1012.61
2019-01-05T02:58:40.596Z,1012.66
2019-01-05T02:59:40.590Z,1012.65
2019-01-05T03:00:40.580Z,1012.66
2019-01-05T03:01:40.577Z,1012.62
2019-01-05T03:02:40.567Z,1012.62
2019-01-05T03:03:40.558Z,1012.58
2019-01-05T03:04:40.549Z,1012.59
2019-01-05T03:05:40.538Z,1012.61
2019-01-05T03:06:40.531Z,1012.60
2019-01-05T03:07:40.522Z,1012.62
2019-01-05T03:08:40.513Z,1012.61
2019-01-05T03:09:40.506Z,1012.63
2019-01-05T03:10:40.497Z,1012.59
2019-01-05T03:11:40.490Z,1012.62
2019-01-05T03:12:40.480Z,1012.57
2019-01-05T03:13:40.471Z,1012.57
2019-01-05T03:14:40.463Z,1012.53
2019-01-05T03:15:40.454Z,1012.50
2019-01-05T03:16:40.449Z,1012.50
2019-01-05T03:17:40.437Z,1012.51
2019-01-05T03:18:40.430Z,1012.53
2019-01-05T03:19:40.420Z,1012.52
2019-01-05T03:20:40.411Z,1012.53
2019-01-05T03:21:40.403Z,1012.55
2019-01-05T03:22:40.397Z,1012.51
2019-01-05T03:23:40.390Z,1012.51
2019-01-05T03:24:40.377Z,1012.48
2019-01-05T03:25:40.377Z,1012.48
2019-01-05T03:26:40.365Z,1012.42
2019-01-05T03:27:40.354Z,1012.45
2019-01-05T03:28:40.345Z,1012.41
2019-01-05T03:29:40.336Z,1012.44
2019-01-05T03:30:40.333Z,1012.40
2019-01-05T03:31:40.321Z,1012.39
2019-01-05T03:32:40.321Z,1012.42
2019-01-05T03:33:40.305Z,1012.32
2019-01-05T03:34:40.295Z,1012.39
2019-01-05T03:35:40.286Z,1012.32
2019-01-05T03:36:40.278Z,1012.33
2019-01-05T03:37:40.270Z,1012.31
2019-01-05T03:38:40.261Z,1012.33
2019-01-05T03:39:40.253Z,1012.33
2019-01-05T03:40:40.243Z,1012.26
2019-01-05T03:41:40.237Z,1012.28
2019-01-05T03:42:40.226Z,1012.32
2019-01-05T03:43:40.220Z,1012.29
2019-01-05T03:44:40.213Z,1012.25
2019-01-05T03:45:40.201Z,1012.33
2019-01-05T03:46:40.198Z,1012.33
2019-01-05T03:47:40.186Z,1012.34
2019-01-05T03:48:40.182Z,1012.31
2019-01-05T03:49:40.168Z,1012.36
2019-01-05T03:50:40.162Z,1012.33
2019-01-05T03:51:40.159Z,1012.27
2019-01-05T03:52:40.144Z,1012.26
2019-01-05T03:53:40.133Z,1012.26
2019-01-05T03:54:40.126Z,1012.25
2019-01-05T03:55:40.118Z,1012.27
2019-01-05T03:56:40.118Z,1012.27
2019-01-05T03:57:40.102Z,1012.22
2019-01-05T03:58:40.094Z,1012.21
2019-01-05T03:59:40.085Z,1012.18
2019-01-05T04:00:40.075Z,1012.15
2019-01-05T04:01:40.072Z,1012.15
2019-01-05T04:02:40.067Z,1012.19
2019-01-05T04:03:40.054Z,1012.24
2019-01-05T04:04:40.044Z,1012.24
2019-01-05T04:05:40.036Z,1012.20
2019-01-05T04:06:40.026Z,1012.22
2019-01-05T04:07:40.017Z,1012.21
2019-01-05T04:08:40.007Z,1012.19
2019-01-05T04:09:40.004Z,1012.18
2019-01-05T04:10:39.992Z,1012.17
2019-01-05T04:11:39.984Z,1012.14
2019-01-05T04:12:39.980Z,1012.14
2019-01-05T04:13:39.969Z,1012.13
2019-01-05T04:14:39.960Z,1012.18
2019-01-05T04:15:39.951Z,1012.10
2019-01-05T04:16:39.944Z,1012.10
2019-01-05T04:17:39.937Z,1012.08
2019-01-05T04:18:39.929Z,1012.06
2019-01-05T04:19:39.923Z,1012.09
2019-01-05T04:20:39.912Z,1012.04
2019-01-05T04:21:39.905Z,1012.10
2019-01-05T04:22:39.892Z,1012.09
2019-01-05T04:23:39.887Z,1012.06
2019-01-05T04:24:39.882Z,1012.03
2019-01-05T04:25:39.873Z,1012.10
2019-01-05T04:26:39.862Z,1012.09
2019-01-05T04:27:39.856Z,1012.04
2019-01-05T04:28:39.843Z,1012.07
2019-01-05T04:29:39.836Z,1012.07
2019-01-05T04:30:39.826Z,1012.03
2019-01-05T04:31:39.819Z,1012.02
2019-01-05T04:32:39.809Z,1011.98
2019-01-05T04:33:39.803Z,1011.98
2019-01-05T04:34:39.796Z,1011.93
2019-01-05T04:35:39.786Z,1011.97
2019-01-05T04:36:39.776Z,1012.01
2019-01-05T04:37:39.773Z,1012.07
2019-01-05T04:38:39.760Z,1012.01
2019-01-05T04:39:39.757Z,1012.00
2019-01-05T04:40:39.750Z,1011.97
2019-01-05T04:41:39.736Z,1012.01
2019-01-05T04:42:39.731Z,1012.00
2019-01-05T04:43:39.722Z,1012.06
2019-01-05T04:44:39.713Z,1012.08
2019-01-05T04:45:39.706Z,1012.05
2019-01-05T04:46:39.696Z,1012.11
2019-01-05T04:47:39.689Z,1012.08
2019-01-05T04:48:39.680Z,1012.08
2019-01-05T04:49:39.671Z,1012.08
2019-01-05T04:50:39.661Z,1012.06
2019-01-05T04:51:39.656Z,1012.08
2019-01-05T04:52:39.646Z,1012.11
2019-01-05T04:53:39.641Z,1012.10
2019-01-05T04:54:39.630Z,1012.04
2019-01-05T04:55:39.622Z,1012.04
2019-01-05T04:56:39.623Z,1012.01
2019-01-05T04:57:39.605Z,1012.04
2019-01-05T04:58:39.598Z,1012.06
2019-01-05T04:59:39.592Z,1012.02
2019-01-05T05:00:39.580Z,1012.00
2019-01-05T05:01:39.574Z,1012.02
2019-01-05T05:02:39.565Z,1012.08
2019-01-05T05:03:39.559Z,1012.13
2019-01-05T05:04:39.548Z,1012.11
2019-01-05T05:05:39.542Z,1012.13
2019-01-05T05:06:39.533Z,1012.06
2019-01-05T05:07:39.525Z,1012.03
2019-01-05T05:08:39.519Z,1012.02
2019-01-05T05:09:39.507Z,1012.01
2019-01-05T05:10:39.500Z,1012.02
2019-01-05T05:11:39.493Z,1011.99
2019-01-05T05:12:39.484Z,1012.12
2019-01-05T05:13:39.475Z,1012.03
2019-01-05T05:14:39.467Z,1012.01
2019-01-05T05:15:39.461Z,1012.03
2019-01-05T05:16:39.452Z,1012.02
2019-01-05T05:17:39.446Z,1011.98
2019-01-05T05:18:39.435Z,1012.01
2019-01-05T05:19:39.427Z,1012.10
2019-01-05T05:20:39.418Z,1012.05
2019-01-05T05:21:39.411Z,1012.05
2019-01-05T05:22:39.402Z,1012.07
2019-01-05T05:23:39.399Z,1012.05
2019-01-05T05:24:39.386Z,1012.01
2019-01-05T05:25:39.379Z,1011.99
2019-01-05T05:26:39.370Z,1011.96
2019-01-05T05:27:39.367Z,1011.93
2019-01-05T05:28:39.354Z,1011.96
2019-01-05T05:29:39.345Z,1011.94
2019-01-05T05:30:39.339Z,1011.94
2019-01-05T05:31:39.334Z,1011.89
2019-01-05T05:32:39.319Z,1011.95
2019-01-05T05:33:39.316Z,1011.93
2019-01-05T05:34:39.311Z,1011.98
2019-01-05T05:35:39.299Z,1012.02
2019-01-05T05:36:39.295Z,1011.99
2019-01-05T05:37:39.282Z,1011.95
2019-01-05T05:38:39.272Z,1011.99
2019-01-05T05:39:39.265Z,1012.01
2019-01-05T05:40:39.260Z,1011.98
2019-01-05T05:41:39.252Z,1012.01
2019-01-05T05:42:39.241Z,1011.94
2019-01-05T05:43:39.235Z,1011.96
2019-01-05T05:44:39.225Z,1012.00
2019-01-05T05:45:39.216Z,1011.99
2019-01-05T05:46:39.208Z,1011.96
2019-01-05T05:47:39.208Z,1011.96
2019-01-05T05:48:39.192Z,1011.97
2019-01-05T05:49:39.186Z,1011.93
2019-01-05T05:50:39.179Z,1011.92
2019-01-05T05:51:39.171Z,1011.87
2019-01-05T05:52:39.165Z,1011.78
2019-01-05T05:53:39.153Z,1011.75
2019-01-05T05:54:39.146Z,1011.78
2019-01-05T05:55:39.136Z,1011.77
2019-01-05T05:56:39.129Z,1011.77
2019-01-05T05:57:39.122Z,1011.78
2019-01-05T05:58:39.114Z,1011.77
2019-01-05T05:59:39.110Z,1011.80
2019-01-05T06:00:39.104Z,1011.76
2019-01-05T06:01:39.088Z,1011.82
2019-01-05T06:02:39.082Z,1011.79
2019-01-05T06:03:39.075Z,1011.81
2019-01-05T06:04:39.065Z,1011.80
2019-01-05T06:05:39.059Z,1011.85
2019-01-05T06:06:39.050Z,1011.82
2019-01-05T06:07:39.043Z,1011.84
2019-01-05T06:08:39.035Z,1011.84
2019-01-05T06:09:39.027Z,1011.91
2019-01-05T06:10:39.022Z,1011.88
2019-01-05T06:11:39.010Z,1011.87
2019-01-05T06:12:39.002Z,1011.91
2019-01-05T06:13:38.998Z,1011.94
2019-01-05T06:14:38.988Z,1011.97
2019-01-05T06:15:38.978Z,1012.01
2019-01-05T06:16:38.970Z,1011.99
2019-01-05T06:17:38.965Z,1012.03
2019-01-05T06:18:38.962Z,1012.06
2019-01-05T06:19:38.948Z,1012.09
2019-01-05T06:20:38.938Z,1012.12
2019-01-05T06:21:38.929Z,1012.15
2019-01-05T06:22:38.922Z,1012.14
2019-01-05T06:23:38.920Z,1012.09
2019-01-05T06:24:38.906Z,1012.10
2019-01-05T06:25:38.899Z,1012.08
2019-01-05T06:26:38.888Z,1012.18
2019-01-05T06:27:38.885Z,1012.14
2019-01-05T06:28:38.877Z,1012.14
2019-01-05T06:29:38.917Z,1012.20
2019-01-05T06:30:38.862Z,1012.15
2019-01-05T06:31:38.853Z,1012.13
2019-01-05T06:32:38.845Z,1012.13
2019-01-05T06:33:38.835Z,1012.17
2019-01-05T06:34:38.829Z,1012.18
2019-01-05T06:35:38.820Z,1012.27
2019-01-05T06:36:38.810Z,1012.20
2019-01-05T06:37:38.804Z,1012.24
2019-01-05T06:38:38.798Z,1012.16
2019-01-05T06:39:38.788Z,1012.16
2019-01-05T06:40:38.778Z,1012.17
2019-01-05T06:41:38.771Z,1012.24
2019-01-05T06:42:38.765Z,1012.19
2019-01-05T06:43:38.758Z,1012.24
2019-01-05T06:44:38.747Z,1012.23
2019-01-05T06:45:38.742Z,1012.29
2019-01-05T06:46:38.733Z,1012.37
2019-01-05T06:47:38.726Z,1012.44
2019-01-05T06:48:38.715Z,1012.44
2019-01-05T06:49:38.711Z,1012.49
2019-01-05T06:50:38.701Z,1012.53
2019-01-05T06:51:38.696Z,1012.50
2019-01-05T06:52:38.684Z,1012.59
2019-01-05T06:53:38.678Z,1012.66
2019-01-05T06:54:38.668Z,1012.77
2019-01-05T06:55:38.661Z,1012.72
2019-01-05T06:56:38.653Z,1012.83
2019-01-05T06:57:38.647Z,1012.73
2019-01-05T06:58:38.639Z,1012.77
2019-01-05T06:59:38.632Z,1012.77
2019-01-05T07:00:38.622Z,1012.82
2019-01-05T07:01:38.611Z,1012.82
2019-01-05T07:02:38.605Z,1012.90
2019-01-05T07:03:38.598Z,1012.86
2019-01-05T07:04:38.590Z,1012.93
2019-01-05T07:05:38.582Z,1012.91
2019-01-05T07:06:38.574Z,1012.97
2019-01-05T07:07:38.566Z,1012.93
2019-01-05T07:08:38.558Z,1012.88
2019-01-05T07:09:38.552Z,1012.89
2019-01-05T07:10:38.541Z,1012.84
2019-01-05T07:11:38.536Z,1012.84
2019-01-05T07:12:38.526Z,1012.86
2019-01-05T07:13:38.520Z,1012.92
2019-01-05T07:14:38.511Z,1012.87
2019-01-05T07:15:38.505Z,1012.84
2019-01-05T07:16:38.495Z,1012.81
2019-01-05T07:17:38.489Z,1012.81
2019-01-05T07:18:38.478Z,1012.82
2019-01-05T07:19:38.473Z,1012.83
2019-01-05T07:20:38.463Z,1012.79
2019-01-05T07:21:38.463Z,1012.83
2019-01-05T07:22:38.449Z,1012.96
2019-01-05T07:23:38.440Z,1013.06
2019-01-05T07:24:38.436Z,1013.07
2019-01-05T07:25:38.423Z,1013.07
2019-01-05T07:26:38.421Z,1013.12
2019-01-05T07:27:38.413Z,1013.14
2019-01-05T07:28:38.401Z,1013.09
2019-01-05T07:29:38.394Z,1013.13
2019-01-05T07:30:38.385Z,1013.19
2019-01-05T07:31:38.374Z,1013.20
2019-01-05T07:32:38.371Z,1013.20
2019-01-05T07:33:38.362Z,1013.23
2019-01-05T07:34:38.355Z,1013.21
2019-01-05T07:35:38.345Z,1013.23
2019-01-05T07:36:38.337Z,1013.25
2019-01-05T07:37:38.332Z,1013.34
2019-01-05T07:38:38.323Z,1013.33
2019-01-05T07:39:38.315Z,1013.36
2019-01-05T07:40:38.306Z,1013.36
2019-01-05T07:41:38.301Z,1013.40
2019-01-05T07:42:38.290Z,1013.40
2019-01-05T07:43:38.285Z,1013.45
2019-01-05T07:44:38.278Z,1013.42
2019-01-05T07:45:38.265Z,1013.44
2019-01-05T07:46:38.258Z,1013.50
2019-01-05T07:47:38.251Z,1013.49
2019-01-05T07:48:38.248Z,1013.45
2019-01-05T07:49:38.240Z,1013.50
2019-01-05T07:50:38.229Z,1013.53
2019-01-05T07:51:38.221Z,1013.63
2019-01-05T07:52:38.213Z,1013.64
2019-01-05T07:53:38.203Z,1013.64
2019-01-05T07:54:38.199Z,1013.68
2019-01-05T07:55:38.189Z,1013.72
2019-01-05T07:56:38.182Z,1013.67
2019-01-05T07:57:38.171Z,1013.71
2019-01-05T07:58:38.165Z,1013.75
2019-01-05T07:59:38.163Z,1013.76
2019-01-05T08:00:38.157Z,1013.78
2019-01-05T08:01:38.144Z,1013.79
2019-01-05T08:02:38.133Z,1013.77
2019-01-05T08:03:38.129Z,1013.78
2019-01-05T08:04:38.118Z,1013.69
2019-01-05T08:05:38.110Z,1013.72
2019-01-05T08:06:38.106Z,1013.74
2019-01-05T08:07:38.099Z,1013.76
2019-01-05T08:08:38.086Z,1013.80
2019-01-05T08:09:38.083Z,1013.76
2019-01-05T08:10:38.072Z,1013.75
2019-01-05T08:11:38.068Z,1013.80
2019-01-05T08:12:38.054Z,1013.78
2019-01-05T08:13:38.050Z,1013.77
2019-01-05T08:14:38.039Z,1013.78
2019-01-05T08:15:38.033Z,1013.79
2019-01-05T08:16:38.024Z,1013.79
2019-01-05T08:17:38.021Z,1013.75
2019-01-05T08:18:38.008Z,1013.76
2019-01-05T08:19:38.002Z,1013.78
2019-01-05T08:20:37.992Z,1013.79
2019-01-05T08:21:37.983Z,1013.85
2019-01-05T08:22:37.981Z,1013.85
2019-01-05T08:23:37.971Z,1013.85
2019-01-05T08:24:37.966Z,1013.82
2019-01-05T08:25:37.956Z,1013.80
2019-01-05T08:26:37.948Z,1013.80
2019-01-05T08:27:37.940Z,1013.81
2019-01-05T08:28:37.936Z,1013.83
2019-01-05T08:29:37.924Z,1013.83
2019-01-05T08:30:37.917Z,1013.84
2019-01-05T08:31:37.909Z,1013.83
2019-01-05T08:32:37.900Z,1013.79
2019-01-05T08:33:37.894Z,1013.87
2019-01-05T08:34:37.891Z,1013.89
2019-01-05T08:35:37.882Z,1013.89
2019-01-05T08:36:37.870Z,1013.89
2019-01-05T08:37:37.863Z,1013.89
2019-01-05T08:38:37.855Z,1013.92
2019-01-05T08:39:37.849Z,1013.95
2019-01-05T08:40:37.840Z,1013.97
2019-01-05T08:41:37.833Z,1013.95
2019-01-05T08:42:37.825Z,1013.93
2019-01-05T08:43:37.816Z,1013.95
2019-01-05T08:44:37.815Z,1013.95
2019-01-05T08:45:37.804Z,1013.97
2019-01-05T08:46:37.791Z,1014.00
2019-01-05T08:47:37.791Z,1013.97
2019-01-05T08:48:37.781Z,1014.02
2019-01-05T08:49:37.771Z,1014.04
2019-01-05T08:50:37.764Z,1014.05
2019-01-05T08:51:37.756Z,1014.04
2019-01-05T08:52:37.751Z,1014.12
2019-01-05T08:53:37.739Z,1014.10
2019-01-05T08:54:37.732Z,1014.13
2019-01-05T08:55:37.725Z,1014.15
2019-01-05T08:56:37.717Z,1014.16
2019-01-05T08:57:37.708Z,1014.18
2019-01-05T08:58:37.703Z,1014.21
2019-01-05T08:59:37.694Z,1014.17
2019-01-05T09:00:37.685Z,1014.20
2019-01-05T09:01:37.679Z,1014.19
2019-01-05T09:02:37.722Z,1014.24
2019-01-05T09:03:37.666Z,1014.21
2019-01-05T09:04:37.654Z,1014.21
2019-01-05T09:05:37.647Z,1014.23
2019-01-05T09:06:37.642Z,1014.24
2019-01-05T09:07:37.640Z,1014.17
2019-01-05T09:08:37.624Z,1014.19
2019-01-05T09:09:37.618Z,1014.20
2019-01-05T09:10:37.605Z,1014.23
2019-01-05T09:11:37.601Z,1014.17
2019-01-05T09:12:37.595Z,1014.21
2019-01-05T09:13:37.594Z,1014.21
2019-01-05T09:14:37.584Z,1014.13
2019-01-05T09:15:37.573Z,1014.17
2019-01-05T09:16:37.567Z,1014.18
2019-01-05T09:17:37.555Z,1014.17
2019-01-05T09:18:37.590Z,1014.19
2019-01-05T09:19:37.541Z,1014.23
2019-01-05T09:20:37.535Z,1014.20
2019-01-05T09:21:37.528Z,1014.18
2019-01-05T09:22:37.520Z,1014.20
2019-01-05T09:23:37.511Z,1014.23
2019-01-05T09:24:37.504Z,1014.25
2019-01-05T09:25:37.523Z,1014.22
2019-01-05T09:26:37.489Z,1014.23
2019-01-05T09:27:37.485Z,1014.27
2019-01-05T09:28:37.473Z,1014.27
2019-01-05T09:29:37.465Z,1014.26
2019-01-05T09:30:37.455Z,1014.26
2019-01-05T09:31:37.450Z,1014.28
2019-01-05T09:32:37.442Z,1014.26
2019-01-05T09:33:37.438Z,1014.17
2019-01-05T09:34:37.426Z,1014.17
2019-01-05T09:35:37.422Z,1014.19
2019-01-05T09:36:37.413Z,1014.22
2019-01-05T09:37:37.425Z,1014.27
2019-01-05T09:38:37.398Z,1014.31
2019-01-05T09:39:37.395Z,1014.34
2019-01-05T09:40:37.384Z,1014.26
2019-01-05T09:41:37.380Z,1014.25
2019-01-05T09:42:37.376Z,1014.31
2019-01-05T09:43:37.362Z,1014.33
2019-01-05T09:44:37.353Z,1014.36
2019-01-05T09:45:37.347Z,1014.39
2019-01-05T09:46:37.338Z,1014.40
2019-01-05T09:47:37.328Z,1014.41
2019-01-05T09:48:37.326Z,1014.37
2019-01-05T09:49:37.315Z,1014.43
2019-01-05T09:50:37.314Z,1014.38
2019-01-05T09:51:37.302Z,1014.40
2019-01-05T09:52:37.292Z,1014.35
2019-01-05T09:53:37.287Z,1014.39
2019-01-05T09:54:37.290Z,1014.48
2019-01-05T09:55:37.268Z,1014.49
2019-01-05T09:56:37.265Z,1014.51
2019-01-05T09:57:37.261Z,1014.46
2019-01-05T09:58:37.248Z,1014.44
2019-01-05T09:59:37.240Z,1014.43
2019-01-05T10:00:37.250Z,1014.45
2019-01-05T10:01:37.231Z,1014.44
2019-01-05T10:02:37.218Z,1014.35
2019-01-05T10:03:37.213Z,1014.34
2019-01-05T10:04:37.205Z,1014.33
2019-01-05T10:05:37.198Z,1014.26
2019-01-05T10:06:37.201Z,1014.29
2019-01-05T10:07:37.180Z,1014.26
2019-01-05T10:08:37.174Z,1014.20
2019-01-05T10:09:37.167Z,1014.20
2019-01-05T10:10:37.170Z,1014.20
2019-01-05T10:11:37.154Z,1014.21
2019-01-05T10:12:37.146Z,1014.25
2019-01-05T10:13:37.139Z,1014.22
2019-01-05T10:14:37.129Z,1014.19
2019-01-05T10:15:37.122Z,1014.20
2019-01-05T10:16:37.114Z,1014.23
2019-01-05T10:17:37.108Z,1014.23
2019-01-05T10:18:37.103Z,1014.25
2019-01-05T10:19:37.097Z,1014.23
2019-01-05T10:20:37.085Z,1014.27
2019-01-05T10:21:37.078Z,1014.25
2019-01-05T10:22:37.072Z,1014.25
2019-01-05T10:23:37.070Z,1014.34
2019-01-05T10:24:37.056Z,1014.38
2019-01-05T10:25:37.050Z,1014.41
2019-01-05T10:26:37.046Z,1014.41
2019-01-05T10:27:37.038Z,1014.40
2019-01-05T10:28:37.027Z,1014.35
2019-01-05T10:29:37.032Z,1014.40
2019-01-05T10:30:37.013Z,1014.41
2019-01-05T10:31:37.009Z,1014.41
2019-01-05T10:32:36.997Z,1014.41
2019-01-05T10:33:36.990Z,1014.45
2019-01-05T10:34:36.983Z,1014.45
2019-01-05T10:35:36.975Z,1014.45
2019-01-05T10:36:36.966Z,1014.45
2019-01-05T10:37:36.961Z,1014.47
2019-01-05T10:38:36.954Z,1014.41
2019-01-05T10:39:36.950Z,1014.46
2019-01-05T10:40:36.939Z,1014.46
2019-01-05T10:41:36.940Z,1014.46
2019-01-05T10:42:36.929Z,1014.52
2019-01-05T10:43:36.919Z,1014.51
2019-01-05T10:44:36.911Z,1014.51
2019-01-05T10:45:36.911Z,1014.47
2019-01-05T10:46:36.898Z,1014.51
2019-01-05T10:47:36.889Z,1014.48
2019-01-05T10:48:36.882Z,1014.52
2019-01-05T10:49:36.873Z,1014.53
2019-01-05T10:50:36.870Z,1014.57
2019-01-05T10:51:36.864Z,1014.53
2019-01-05T10:52:36.852Z,1014.49
2019-01-05T10:53:36.845Z,1014.46
2019-01-05T10:54:36.838Z,1014.46
2019-01-05T10:55:36.838Z,1014.44
2019-01-05T10:56:36.827Z,1014.52
2019-01-05T10:57:37.814Z,1014.50
2019-01-05T10:58:36.810Z,1014.49
2019-01-05T10:59:36.805Z,1014.53
2019-01-05T11:00:36.795Z,1014.55
2019-01-05T11:01:36.793Z,1014.59
2019-01-05T11:02:36.785Z,1014.62
2019-01-05T11:03:36.780Z,1014.66
2019-01-05T11:04:36.769Z,1014.68
2019-01-05T11:05:36.762Z,1014.68
2019-01-05T11:06:36.756Z,1014.70
2019-01-05T11:07:36.750Z,1014.72
2019-01-05T11:08:36.732Z,1014.72
2019-01-05T11:09:36.733Z,1014.76
2019-01-05T11:10:36.727Z,1014.75
2019-01-05T11:11:36.720Z,1014.73
2019-01-05T11:12:36.715Z,1014.77
2019-01-05T11:13:36.708Z,1014.76
2019-01-05T11:14:36.696Z,1014.77
2019-01-05T11:15:36.696Z,1014.75
2019-01-05T11:16:36.684Z,1014.77
2019-01-05T11:17:36.684Z,1014.80
2019-01-05T11:18:36.671Z,1014.81
2019-01-05T11:19:36.662Z,1014.83
2019-01-05T11:20:36.661Z,1014.81
2019-01-05T11:21:36.649Z,1014.80
2019-01-05T11:22:36.646Z,1014.83
2019-01-05T11:23:36.636Z,1014.80
2019-01-05T11:24:36.628Z,1014.76
2019-01-05T11:25:36.623Z,1014.80
2019-01-05T11:26:36.614Z,1014.79
2019-01-05T11:27:36.615Z,1014.80
2019-01-05T11:28:36.603Z,1014.75
2019-01-05T11:29:36.593Z,1014.79
2019-01-05T11:30:36.594Z,1014.80
2019-01-05T11:31:36.582Z,1014.77
2019-01-05T11:32:36.573Z,1014.75
2019-01-05T11:33:36.570Z,1014.77
2019-01-05T11:34:36.561Z,1014.77
2019-01-05T11:35:36.556Z,1014.82
2019-01-05T11:36:36.545Z,1014.83
2019-01-05T11:37:36.541Z,1014.86
2019-01-05T11:38:36.533Z,1014.87
2019-01-05T11:39:36.524Z,1014.87
2019-01-05T11:40:36.517Z,1014.83
2019-01-05T11:41:36.511Z,1014.85
2019-01-05T11:42:36.503Z,1014.83
2019-01-05T11:43:36.497Z,1014.84
2019-01-05T11:44:36.491Z,1014.82
2019-01-05T11:45:36.490Z,1014.80
2019-01-05T11:46:36.478Z,1014.84
2019-01-05T11:47:36.472Z,1014.87
2019-01-05T11:48:36.466Z,1014.84
2019-01-05T11:49:36.456Z,1014.80
2019-01-05T11:50:36.448Z,1014.92
2019-01-05T11:51:36.439Z,1014.91
2019-01-05T11:52:36.432Z,1014.95
2019-01-05T11:53:36.433Z,1014.96
2019-01-05T11:54:36.430Z,1014.92
2019-01-05T11:55:36.414Z,1014.97
2019-01-05T11:56:36.423Z,1015.04
2019-01-05T11:57:36.398Z,1015.03
2019-01-05T11:58:36.394Z,1015.02
2019-01-05T11:59:36.389Z,1015.04
2019-01-05T12:00:36.455Z,1015.07
2019-01-05T12:01:36.370Z,1015.10
2019-01-05T12:02:36.365Z,1015.02
2019-01-05T12:03:36.355Z,1015.04
2019-01-05T12:04:36.361Z,1015.03
2019-01-05T12:05:36.346Z,1015.02